Map

Track Data

SID SEASON NUMBER BASIN SUBBASIN NAME ISO_TIME NATURE LAT LON WMO_WIND WMO_PRES WMO_AGENCY TRACK_TYPE DIST2LAND LANDFALL IFLAG USA_AGENCY USA_ATCF_ID USA_LAT USA_LON USA_RECORD USA_STATUS USA_WIND USA_PRES USA_SSHS USA_R34_NE USA_R34_SE USA_R34_SW USA_R34_NW USA_R50_NE USA_R50_SE USA_R50_SW USA_R50_NW USA_R64_NE USA_R64_SE USA_R64_SW USA_R64_NW USA_POCI USA_ROCI USA_RMW USA_EYE TOKYO_LAT TOKYO_LON TOKYO_GRADE TOKYO_WIND TOKYO_PRES TOKYO_R50_DIR TOKYO_R50_LONG TOKYO_R50_SHORT TOKYO_R30_DIR TOKYO_R30_LONG TOKYO_R30_SHORT TOKYO_LAND CMA_LAT CMA_LON CMA_CAT CMA_WIND CMA_PRES HKO_LAT HKO_LON HKO_CAT HKO_WIND HKO_PRES NEWDELHI_LAT NEWDELHI_LON NEWDELHI_GRADE NEWDELHI_WIND NEWDELHI_PRES NEWDELHI_CI NEWDELHI_DP NEWDELHI_POCI REUNION_LAT REUNION_LON REUNION_TYPE REUNION_WIND REUNION_PRES REUNION_TNUM REUNION_CI REUNION_RMW REUNION_R34_NE REUNION_R34_SE REUNION_R34_SW REUNION_R34_NW REUNION_R50_NE REUNION_R50_SE REUNION_R50_SW REUNION_R50_NW REUNION_R64_NE REUNION_R64_SE REUNION_R64_SW REUNION_R64_NW BOM_LAT BOM_LON BOM_TYPE BOM_WIND BOM_PRES BOM_TNUM BOM_CI BOM_RMW BOM_R34_NE BOM_R34_SE BOM_R34_SW BOM_R34_NW BOM_R50_NE BOM_R50_SE BOM_R50_SW BOM_R50_NW BOM_R64_NE BOM_R64_SE BOM_R64_SW BOM_R64_NW BOM_ROCI BOM_POCI BOM_EYE BOM_POS_METHOD BOM_PRES_METHOD NADI_LAT NADI_LON NADI_CAT NADI_WIND NADI_PRES WELLINGTON_LAT WELLINGTON_LON WELLINGTON_WIND WELLINGTON_PRES DS824_LAT DS824_LON DS824_STAGE DS824_WIND DS824_PRES TD9636_LAT TD9636_LON TD9636_STAGE TD9636_WIND TD9636_PRES TD9635_LAT TD9635_LON TD9635_WIND TD9635_PRES TD9635_ROCI NEUMANN_LAT NEUMANN_LON NEUMANN_CLASS NEUMANN_WIND NEUMANN_PRES MLC_LAT MLC_LON MLC_CLASS MLC_WIND MLC_PRES USA_GUST BOM_GUST BOM_GUST_PER REUNION_GUST REUNION_GUST_PER USA_SEAHGT USA_SEARAD_NE USA_SEARAD_SE USA_SEARAD_SW USA_SEARAD_NW STORM_SPEED STORM_DIR
1976328N08090 1976 138 NI BB NOT_NAMED 1976-11-22 12:00:00 TS 8.00000 90.4000 main 594 594 O________OO___ jtwc_io IO131976 8.00000 90.4000 -1 8.00000 90.4000 TC 25 8.00000 90.4000 1 7 278
1976328N08090 1976 138 NI BB NOT_NAMED 1976-11-22 15:00:00 TS 8.04860 90.0566 main 624 624 P________PP___ IO131976 8.04005 90.0575 -1 8.04005 90.0575 TC 25 8.06571 90.0547 1 7 279
1976328N08090 1976 138 NI BB NOT_NAMED 1976-11-22 18:00:00 TS 8.11168 89.6992 main 669 669 O________OP___ jtwc_io IO131976 8.10000 89.7000 -1 8.10000 89.7000 TC 25 8.13503 89.6975 1 8 282
1976328N08090 1976 138 NI BB NOT_NAMED 1976-11-22 21:00:00 TS 8.19893 89.3155 main 714 714 P________PP___ IO131976 8.19246 89.3150 -1 8.19246 89.3150 TC 25 8.21186 89.3166 1 8 283
1976328N08090 1976 138 NI BB NOT_NAMED 1976-11-23 00:00:00 TS 8.30000 88.9000 main 758 743 O________OO___ jtwc_io IO131976 8.30000 88.9000 -1 8.30000 88.9000 TC 25 8.30000 88.9000 1 9 283
1976328N08090 1976 138 NI BB NOT_NAMED 1976-11-23 03:00:00 TS 8.39583 88.4571 main 743 690 P________PP___ IO131976 8.39245 88.4649 -1 8.39245 88.4649 TC 25 8.40259 88.4416 1 9 283
1976328N08090 1976 138 NI BB NOT_NAMED 1976-11-23 06:00:00 TS 8.50671 87.9858 main 690 637 O________OP___ jtwc_io IO131976 8.50000 88.0000 -1 8.50000 88.0000 TC 25 8.52013 87.9575 1 10 285
1976328N08090 1976 138 NI BB NOT_NAMED 1976-11-23 09:00:00 TS 8.64587 87.4849 main 637 588 P________PP___ IO131976 8.64252 87.4925 -1 8.64252 87.4925 TC 25 8.65258 87.4696 1 10 287
1976328N08090 1976 138 NI BB NOT_NAMED 1976-11-23 12:00:00 TS 8.80000 87.0000 main 588 548 O________OO___ jtwc_io IO131976 8.80000 87.0000 -1 8.80000 87.0000 TC 25 8.80000 87.0000 1 9 288
1976328N08090 1976 138 NI BB NOT_NAMED 1976-11-23 15:00:00 TS 8.93605 86.6001 main 548 512 P________PP___ IO131976 8.94241 86.5849 -1 8.94241 86.5849 TC 25 8.92334 86.6304 1 8 291
1976328N08090 1976 138 NI BB NOT_NAMED 1976-11-23 18:00:00 TS 9.08880 86.2245 main 512 485 O________OP___ jtwc_io IO131976 9.10000 86.2000 -1 9.10000 86.2000 TC 25 9.06639 86.2736 1 8 294
1976328N08090 1976 138 NI BB NOT_NAMED 1976-11-23 21:00:00 TS 9.26361 85.8565 main 489 449 P________PP___ IO131976 9.26977 85.8448 -1 9.26977 85.8448 TC 25 9.25128 85.8801 1 9 297
1976328N08090 1976 138 NI BB NOT_NAMED 1976-11-24 00:00:00 TS 9.50000 85.4000 main 449 405 O________OO___ jtwc_io IO131976 9.50000 85.4000 -1 9.50000 85.4000 TC 25 9.50000 85.4000 1 12 297
1976328N08090 1976 138 NI BB NOT_NAMED 1976-11-24 03:00:00 TS 9.81640 84.7431 main 395 349 P________PP___ IO131976 9.81255 84.7524 -1 9.81255 84.7524 TC 25 9.82411 84.7244 1 16 297
1976328N08090 1976 138 NI BB NOT_NAMED 1976-11-24 06:00:00 TS 10.2038 83.9886 main 349 310 O________OP___ jtwc_io IO131976 10.2000 84.0000 -1 10.2000 84.0000 TC 25 10.2115 83.9658 1 17 299
1976328N08090 1976 138 NI BB NOT_NAMED 1976-11-24 09:00:00 TS 10.6377 83.2181 main 300 274 P________PP___ IO131976 10.6351 83.2276 -1 10.6351 83.2276 TC 25 10.6429 83.1992 1 17 301
1976328N08090 1976 138 NI BB NOT_NAMED 1976-11-24 12:00:00 TS 11.1000 82.5000 main 274 216 O________OO___ jtwc_io IO131976 11.1000 82.5000 -1 11.1000 82.5000 TC 25 11.1000 82.5000 1 16 305
1976328N08090 1976 138 NI BB NOT_NAMED 1976-11-24 15:00:00 TS 11.5499 81.8980 main 216 141 P________PP___ IO131976 11.5423 81.8898 -1 11.5423 81.8898 TC 25 11.5651 81.9143 1 14 310
1976328N08090 1976 138 NI BB NOT_NAMED 1976-11-24 18:00:00 TS 12.0165 81.4043 main 141 86 O________OP___ jtwc_io IO131976 12.0000 81.4000 -1 12.0000 81.4000 TC 25 12.0494 81.4129 1 13 317
1976328N08090 1976 138 NI BB NOT_NAMED 1976-11-24 21:00:00 TS 12.5113 80.9950 main 86 54 P________PP___ IO131976 12.4999 80.9900 -1 12.4999 80.9900 TC 25 12.5341 81.0050 1 12 325
1976328N08090 1976 138 NI BB NOT_NAMED 1976-11-25 00:00:00 TS 13.0000 80.7000 main 54 21 O________OO___ jtwc_io IO131976 13.0000 80.7000 -1 13.0000 80.7000 TC 25 13.0000 80.7000 1 11 333
1976328N08090 1976 138 NI BB NOT_NAMED 1976-11-25 03:00:00 TS 13.4715 80.4974 main 21 10 P________PP___ IO131976 13.4724 80.5049 -1 13.4724 80.5049 TC 25 13.4698 80.4824 1 10 341
1976328N08090 1976 138 NI BB NOT_NAMED 1976-11-25 06:00:00 TS 13.9040 80.3880 main 15 15 O________OP___ jtwc_io IO131976 13.9000 80.4000 -1 13.9000 80.4000 TC 25 13.9119 80.3641 1 9 348
1976328N08090 1976 138 NI BB NOT_NAMED 1976-11-25 09:00:00 TS 14.3010 80.3229 main 21 10 P________PP___ IO131976 14.3025 80.3274 -1 14.3025 80.3274 TC 25 14.2981 80.3138 1 7 353
1976328N08090 1976 138 NI BB NOT_NAMED 1976-11-25 12:00:00 TS 14.6000 80.3000 main 10 10 O________OO___ jtwc_io IO131976 14.6000 80.3000 -1 14.6000 80.3000 TC 25 14.6000 80.3000 1 5 355
1976328N08090 1976 138 NI BB NOT_NAMED 1976-11-25 15:00:00 TS 14.7524 80.2840 main 21 21 P________PP___ IO131976 14.7375 80.2925 -1 14.7375 80.2925 TC 25 14.7821 80.2670 1 2 0
1976328N08090 1976 138 NI BB NOT_NAMED 1976-11-25 18:00:00 TS 14.8275 80.2874 main 21 21 O________OP___ jtwc_io IO131976 14.8000 80.3000 -1 14.8000 80.3000 TC 25 14.8824 80.2623 1 2 8
1976328N08090 1976 138 NI BB NOT_NAMED 1976-11-25 21:00:00 TS 14.9138 80.2922 main 24 24 P________PP___ IO131976 14.9000 80.3000 -1 14.9000 80.3000 TC 25 14.9415 80.2765 1 2 0
1976328N08090 1976 138 NI BB NOT_NAMED 1976-11-26 00:00:00 TS 15.0000 80.3000 main 31 31 O________OO___ jtwc_io IO131976 15.0000 80.3000 -1 15.0000 80.3000 TC 25 15.0000 80.3000 1 2 353
1976328N08090 1976 138 NI BB NOT_NAMED 1976-11-26 03:00:00 TS 15.0982 80.2834 main 31 24 P________PP___ IO131976 15.0925 80.2925 -1 15.0925 80.2925 TC 25 15.1095 80.2653 1 2 357
1976328N08090 1976 138 NI BB NOT_NAMED 1976-11-26 06:00:00 TS 15.2090 80.2818 main 24 21 O________OP___ jtwc_io IO131976 15.2000 80.3000 -1 15.2000 80.3000 TC 25 15.2271 80.2455 1 2 1
1976328N08090 1976 138 NI BB NOT_NAMED 1976-11-26 09:00:00 TS 15.3420 80.2960 main 21 15 P________PP___ IO131976 15.3349 80.3051 -1 15.3349 80.3051 TC 25 15.3562 80.2779 1 3 21
1976328N08090 1976 138 NI BB NOT_NAMED 1976-11-26 12:00:00 TS 15.5000 80.4000 main 21 15 O________OO___ jtwc_io IO131976 15.5000 80.4000 -1 15.5000 80.4000 TC 25 15.5000 80.4000 1 5 45
1976328N08090 1976 138 NI BB NOT_NAMED 1976-11-26 15:00:00 TS 15.6911 80.6531 main 10 0 P________PP___ IO131976 15.7000 80.6474 -1 15.7000 80.6474 TC 25 15.6732 80.6643 1 7 56
1976328N08090 1976 138 NI BB NOT_NAMED 1976-11-26 18:00:00 TS 15.8860 81.0056 main 0 0 O________OP___ jtwc_io IO131976 15.9000 81.0000 -1 15.9000 81.0000 TC 25 15.8580 81.0169 1 8 63
1976328N08090 1976 138 NI BB NOT_NAMED 1976-11-26 21:00:00 TS 16.0563 81.4037 main 21 11 P________PP___ IO131976 16.0651 81.4000 -1 16.0651 81.4000 TC 30 16.0388 81.4112 1 8 68
1976328N08090 1976 138 NI BB NOT_NAMED 1976-11-27 00:00:00 TS 16.2000 81.8000 main 15 11 O________OO___ jtwc_io IO131976 16.2000 81.8000 -1 16.2000 81.8000 TC 35 16.2000 81.8000 2 7 69
1976328N08090 1976 138 NI BB NOT_NAMED 1976-11-27 03:00:00 TS 16.3120 82.1096 main 22 15 P________PP___ IO131976 16.3074 82.1151 -1 16.3074 82.1151 TC 30 16.3211 82.0985 2 6 70
1976328N08090 1976 138 NI BB NOT_NAMED 1976-11-27 06:00:00 TS 16.4073 82.3952 main 24 24 O________OP___ jtwc_io IO131976 16.4000 82.4000 -1 16.4000 82.4000 TC 25 16.4219 82.3855 2 6 71
1976328N08090 1976 138 NI BB NOT_NAMED 1976-11-27 09:00:00 TS 16.5039 82.6883 main 44 44 P________PP___ IO131976 16.4999 82.6925 -1 16.4999 82.6925 TC 25 16.5117 82.6797 2 6 72
1976328N08090 1976 138 NI BB NOT_NAMED 1976-11-27 12:00:00 TS 16.6000 83.0000 main 67 67 O________OO___ jtwc_io IO131976 16.6000 83.0000 -1 16.6000 83.0000 TC 25 16.6000 83.0000 1 6 73
1976328N08090 1976 138 NI BB NOT_NAMED 1976-11-27 15:00:00 TS 16.6916 83.3315 main 94 94 P________PP___ IO131976 16.6999 83.3276 -1 16.6999 83.3276 TC 25 16.6751 83.3395 1 7 75
1976328N08090 1976 138 NI BB NOT_NAMED 1976-11-27 18:00:00 TS 16.7847 83.7037 main 104 104 O________OP___ jtwc_io IO131976 16.8000 83.7000 -1 16.8000 83.7000 TC 25 16.7542 83.7112 1 8 76
1976328N08090 1976 138 NI BB NOT_NAMED 1976-11-27 21:00:00 TS 16.8753 84.1175 main 123 123 P________PP___ IO131976 16.8848 84.1127 -1 16.8848 84.1127 TC 25 16.8562 84.1272 1 9 76
1976328N08090 1976 138 NI BB NOT_NAMED 1976-11-28 00:00:00 TS 17.0000 84.6000 main 153 153 O________OO___ jtwc_io IO131976 17.0000 84.6000 -1 17.0000 84.6000 TC 25 17.0000 84.6000 1 11 73
1976328N08090 1976 138 NI BB NOT_NAMED 1976-11-28 03:00:00 TS 17.1852 85.1738 main 169 169 P________PP___ IO131976 17.1700 85.1776 -1 17.1700 85.1776 TC 25 17.2157 85.1661 1 12 70
1976328N08090 1976 138 NI BB NOT_NAMED 1976-11-28 06:00:00 TS 17.4237 85.7946 main 199 199 O________OP___ jtwc_io IO131976 17.4000 85.8000 -1 17.4000 85.8000 TC 25 17.4710 85.7839 1 13 66
1976328N08090 1976 138 NI BB NOT_NAMED 1976-11-28 09:00:00 TS 17.7136 86.4182 main 226 226 P________PP___ IO131976 17.7000 86.4223 -1 17.7000 86.4223 TC 25 17.7407 86.4099 1 13 63
1976328N08090 1976 138 NI BB NOT_NAMED 1976-11-28 12:00:00 TS 18.0000 87.0000 main 232 222 O________OO___ jtwc_io IO131976 18.0000 87.0000 -1 18.0000 87.0000 TC 25 18.0000 87.0000 1 11 64
1976328N08090 1976 138 NI BB NOT_NAMED 1976-11-28 15:00:00 TS 18.2171 87.4838 main 232 228 P________PP___ IO131976 18.2147 87.4728 -1 18.2147 87.4728 TC 25 18.2218 87.5058 1 10 65
1976328N08090 1976 138 NI BB NOT_NAMED 1976-11-28 18:00:00 TS 18.4097 87.9227 main 238 237 O________OP___ jtwc_io IO131976 18.4000 87.9000 -1 18.4000 87.9000 TC 25 18.4291 87.9680 1 9 65
1976328N08090 1976 138 NI BB NOT_NAMED 1976-11-28 21:00:00 TS 18.6123 88.3754 main 260 260 P________PP___ IO131976 18.6075 88.3650 -1 18.6075 88.3650 TC 25 18.6220 88.3963 1 9 65
1976328N08090 1976 138 NI BB NOT_NAMED 1976-11-29 00:00:00 TS 18.8000 88.8000 main 276 276 O________OO___ jtwc_io IO131976 18.8000 88.8000 -1 18.8000 88.8000 TC 25 18.8000 88.8000 1 8 65
1976328N08090 1976 138 NI BB NOT_NAMED 1976-11-29 03:00:00 TS 18.9606 89.1573 main 290 281 P________PP___ IO131976 18.9573 89.1577 -1 18.9573 89.1577 TC 25 18.9673 89.1566 1 7 65
1976328N08090 1976 138 NI BB NOT_NAMED 1976-11-29 06:00:00 TS 19.1069 89.4995 main 282 273 O________OP___ jtwc_io IO131976 19.1000 89.5000 -1 19.1000 89.5000 TC 25 19.1208 89.4984 1 7 66
1976328N08090 1976 138 NI BB NOT_NAMED 1976-11-29 09:00:00 TS 19.2545 89.8687 main 270 263 P________PP___ IO131976 19.2498 89.8701 -1 19.2498 89.8701 TC 25 19.2640 89.8660 1 8 69
1976328N08090 1976 138 NI BB NOT_NAMED 1976-11-29 12:00:00 TS 19.4000 90.3000 main 263 214 O________OO___ jtwc_io IO131976 19.4000 90.3000 -1 19.4000 90.3000 TC 25 19.4000 90.3000 1 9 72
1976328N08090 1976 138 NI BB NOT_NAMED 1976-11-29 15:00:00 TS 19.5486 90.8134 main 214 151 P________PP___ IO131976 19.5573 90.8050 -1 19.5573 90.8050 TC 25 19.5312 90.8302 1 11 75
1976328N08090 1976 138 NI BB NOT_NAMED 1976-11-29 18:00:00 TS 19.6860 91.4138 main 151 92 O________OP___ jtwc_io IO131976 19.7000 91.4000 -1 19.7000 91.4000 TC 25 19.6581 91.4413 1 12 78
1976328N08090 1976 138 NI BB NOT_NAMED 1976-11-29 21:00:00 TS 19.8007 92.0872 main 83 24 P________PP___ IO131976 19.8106 92.0774 -1 19.8106 92.0774 TC 25 19.7809 92.1068 1 13 81
1976328N08090 1976 138 NI BB NOT_NAMED 1976-11-30 00:00:00 TS 19.9000 92.8000 main 24 O________OO___ jtwc_io IO131976 19.9000 92.8000 -1 19.9000 92.8000 TC 25 19.9000 92.8000 6 14 82

About IBTrACS Database

This database is a web-friendly format of International Best Track Archive for Climate Stewardship (IBTrACS), a global best track data archive curated by NOAA dating back to 1842.

Updated: 2021-10-08